sensor_id;sensor_type;location;lat;lon;timestamp;temperature;humidity
12622;DHT22;6376;48.182;-1.644;2023-06-10T00:01:41;20.70;83.80
12622;DHT22;6376;48.182;-1.644;2023-06-10T00:04:08;20.70;83.80
12622;DHT22;6376;48.182;-1.644;2023-06-10T00:06:34;20.70;84.10
12622;DHT22;6376;48.182;-1.644;2023-06-10T00:09:05;20.70;84.30
12622;DHT22;6376;48.182;-1.644;2023-06-10T00:11:32;20.80;84.40
12622;DHT22;6376;48.182;-1.644;2023-06-10T00:13:58;20.70;84.30
12622;DHT22;6376;48.182;-1.644;2023-06-10T00:16:23;20.70;84.40
12622;DHT22;6376;48.182;-1.644;2023-06-10T00:18:49;20.70;84.50
12622;DHT22;6376;48.182;-1.644;2023-06-10T00:21:17;20.70;84.60
12622;DHT22;6376;48.182;-1.644;2023-06-10T00:23:42;20.70;84.60
12622;DHT22;6376;48.182;-1.644;2023-06-10T00:26:09;20.70;84.50
12622;DHT22;6376;48.182;-1.644;2023-06-10T00:28:35;20.70;84.60
12622;DHT22;6376;48.182;-1.644;2023-06-10T00:31:01;20.70;84.60
12622;DHT22;6376;48.182;-1.644;2023-06-10T00:33:27;20.70;84.60
12622;DHT22;6376;48.182;-1.644;2023-06-10T00:35:53;20.70;84.80
12622;DHT22;6376;48.182;-1.644;2023-06-10T00:38:19;20.70;85.00
12622;DHT22;6376;48.182;-1.644;2023-06-10T00:40:44;20.70;84.70
12622;DHT22;6376;48.182;-1.644;2023-06-10T00:43:10;20.70;84.60
12622;DHT22;6376;48.182;-1.644;2023-06-10T00:45:36;20.70;84.90
12622;DHT22;6376;48.182;-1.644;2023-06-10T00:48:02;20.70;84.40
12622;DHT22;6376;48.182;-1.644;2023-06-10T00:50:28;20.70;84.60
12622;DHT22;6376;48.182;-1.644;2023-06-10T00:52:54;20.70;84.60
12622;DHT22;6376;48.182;-1.644;2023-06-10T00:55:21;20.70;84.80
12622;DHT22;6376;48.182;-1.644;2023-06-10T00:57:47;20.70;84.90
12622;DHT22;6376;48.182;-1.644;2023-06-10T01:00:16;20.70;84.70
12622;DHT22;6376;48.182;-1.644;2023-06-10T01:02:42;20.70;85.20
12622;DHT22;6376;48.182;-1.644;2023-06-10T01:05:09;20.70;85.20
12622;DHT22;6376;48.182;-1.644;2023-06-10T01:07:45;20.70;85.20
12622;DHT22;6376;48.182;-1.644;2023-06-10T01:10:19;20.70;85.00
12622;DHT22;6376;48.182;-1.644;2023-06-10T01:12:55;20.60;85.20
12622;DHT22;6376;48.182;-1.644;2023-06-10T01:15:25;20.70;85.40
12622;DHT22;6376;48.182;-1.644;2023-06-10T01:18:02;20.70;85.00
12622;DHT22;6376;48.182;-1.644;2023-06-10T01:20:29;20.80;84.80
12622;DHT22;6376;48.182;-1.644;2023-06-10T01:23:01;20.70;84.90
12622;DHT22;6376;48.182;-1.644;2023-06-10T01:25:29;20.70;85.30
12622;DHT22;6376;48.182;-1.644;2023-06-10T01:28:07;20.60;85.30
12622;DHT22;6376;48.182;-1.644;2023-06-10T01:30:59;20.60;85.50
12622;DHT22;6376;48.182;-1.644;2023-06-10T01:33:31;20.60;85.90
12622;DHT22;6376;48.182;-1.644;2023-06-10T01:35:59;20.60;85.50
12622;DHT22;6376;48.182;-1.644;2023-06-10T01:38:27;20.60;86.10
12622;DHT22;6376;48.182;-1.644;2023-06-10T01:40:53;20.60;85.80
12622;DHT22;6376;48.182;-1.644;2023-06-10T01:43:21;20.70;85.80
12622;DHT22;6376;48.182;-1.644;2023-06-10T01:45:47;20.70;85.80
12622;DHT22;6376;48.182;-1.644;2023-06-10T01:48:12;20.70;85.90
12622;DHT22;6376;48.182;-1.644;2023-06-10T01:50:38;20.70;85.50
12622;DHT22;6376;48.182;-1.644;2023-06-10T01:53:04;20.70;85.30
12622;DHT22;6376;48.182;-1.644;2023-06-10T01:55:31;20.70;85.60
12622;DHT22;6376;48.182;-1.644;2023-06-10T01:57:56;20.70;85.80
12622;DHT22;6376;48.182;-1.644;2023-06-10T02:00:22;20.70;85.60
12622;DHT22;6376;48.182;-1.644;2023-06-10T02:02:48;20.60;85.90
12622;DHT22;6376;48.182;-1.644;2023-06-10T02:05:13;20.60;86.10
12622;DHT22;6376;48.182;-1.644;2023-06-10T02:07:39;20.60;86.10
12622;DHT22;6376;48.182;-1.644;2023-06-10T02:10:06;20.60;85.80
12622;DHT22;6376;48.182;-1.644;2023-06-10T02:12:31;20.60;86.10
12622;DHT22;6376;48.182;-1.644;2023-06-10T02:14:57;20.60;85.80
12622;DHT22;6376;48.182;-1.644;2023-06-10T02:17:23;20.70;85.50
12622;DHT22;6376;48.182;-1.644;2023-06-10T02:19:49;20.70;85.50
12622;DHT22;6376;48.182;-1.644;2023-06-10T02:22:21;20.70;85.30
12622;DHT22;6376;48.182;-1.644;2023-06-10T02:24:47;20.70;85.20
12622;DHT22;6376;48.182;-1.644;2023-06-10T02:27:14;20.70;85.20
12622;DHT22;6376;48.182;-1.644;2023-06-10T02:29:40;20.70;85.30
12622;DHT22;6376;48.182;-1.644;2023-06-10T02:32:06;20.70;85.10
12622;DHT22;6376;48.182;-1.644;2023-06-10T02:34:32;20.70;85.50
12622;DHT22;6376;48.182;-1.644;2023-06-10T02:36:59;20.70;85.50
12622;DHT22;6376;48.182;-1.644;2023-06-10T02:39:24;20.70;85.50
12622;DHT22;6376;48.182;-1.644;2023-06-10T02:41:50;20.70;85.30
12622;DHT22;6376;48.182;-1.644;2023-06-10T02:44:18;20.70;85.60
12622;DHT22;6376;48.182;-1.644;2023-06-10T02:46:43;20.70;85.50
12622;DHT22;6376;48.182;-1.644;2023-06-10T02:49:09;20.70;85.90
12622;DHT22;6376;48.182;-1.644;2023-06-10T02:51:34;20.70;85.90
12622;DHT22;6376;48.182;-1.644;2023-06-10T02:54:01;20.70;85.90
12622;DHT22;6376;48.182;-1.644;2023-06-10T02:56:27;20.60;85.90
12622;DHT22;6376;48.182;-1.644;2023-06-10T02:58:52;20.60;85.90
12622;DHT22;6376;48.182;-1.644;2023-06-10T03:01:18;20.60;86.00
12622;DHT22;6376;48.182;-1.644;2023-06-10T03:03:44;20.60;86.20
12622;DHT22;6376;48.182;-1.644;2023-06-10T03:06:12;20.60;85.80
12622;DHT22;6376;48.182;-1.644;2023-06-10T03:08:38;20.60;85.90
12622;DHT22;6376;48.182;-1.644;2023-06-10T03:11:04;20.60;85.80
12622;DHT22;6376;48.182;-1.644;2023-06-10T03:13:30;20.60;86.10
12622;DHT22;6376;48.182;-1.644;2023-06-10T03:15:56;20.60;86.00
12622;DHT22;6376;48.182;-1.644;2023-06-10T03:18:26;20.60;86.00
12622;DHT22;6376;48.182;-1.644;2023-06-10T03:20:52;20.60;86.10
12622;DHT22;6376;48.182;-1.644;2023-06-10T03:23:18;20.60;86.10
12622;DHT22;6376;48.182;-1.644;2023-06-10T03:25:44;20.60;86.10
12622;DHT22;6376;48.182;-1.644;2023-06-10T03:28:10;20.60;86.00
12622;DHT22;6376;48.182;-1.644;2023-06-10T03:30:35;20.60;86.20
12622;DHT22;6376;48.182;-1.644;2023-06-10T03:33:01;20.60;86.20
12622;DHT22;6376;48.182;-1.644;2023-06-10T03:35:27;20.60;86.30
12622;DHT22;6376;48.182;-1.644;2023-06-10T03:37:52;20.60;86.20
12622;DHT22;6376;48.182;-1.644;2023-06-10T03:40:18;20.60;86.30
12622;DHT22;6376;48.182;-1.644;2023-06-10T03:42:44;20.60;86.30
12622;DHT22;6376;48.182;-1.644;2023-06-10T03:45:10;20.60;86.50
12622;DHT22;6376;48.182;-1.644;2023-06-10T03:47:37;20.60;86.30
12622;DHT22;6376;48.182;-1.644;2023-06-10T03:50:06;20.60;86.20
12622;DHT22;6376;48.182;-1.644;2023-06-10T03:52:35;20.60;86.30
12622;DHT22;6376;48.182;-1.644;2023-06-10T03:55:00;20.50;87.30
12622;DHT22;6376;48.182;-1.644;2023-06-10T03:57:26;20.60;86.60
12622;DHT22;6376;48.182;-1.644;2023-06-10T03:59:52;20.50;86.60
12622;DHT22;6376;48.182;-1.644;2023-06-10T04:02:17;20.50;86.70
12622;DHT22;6376;48.182;-1.644;2023-06-10T04:04:43;20.50;86.60
12622;DHT22;6376;48.182;-1.644;2023-06-10T04:07:09;20.60;86.60
12622;DHT22;6376;48.182;-1.644;2023-06-10T04:09:35;20.50;86.70
12622;DHT22;6376;48.182;-1.644;2023-06-10T04:12:02;20.60;86.90
12622;DHT22;6376;48.182;-1.644;2023-06-10T04:14:27;20.60;86.80
12622;DHT22;6376;48.182;-1.644;2023-06-10T04:16:53;20.60;86.80
12622;DHT22;6376;48.182;-1.644;2023-06-10T04:19:19;20.60;86.90
12622;DHT22;6376;48.182;-1.644;2023-06-10T04:21:45;20.60;86.90
12622;DHT22;6376;48.182;-1.644;2023-06-10T04:24:10;20.60;86.80
12622;DHT22;6376;48.182;-1.644;2023-06-10T04:26:37;20.60;86.70
12622;DHT22;6376;48.182;-1.644;2023-06-10T04:29:03;20.50;86.60
12622;DHT22;6376;48.182;-1.644;2023-06-10T04:31:29;20.50;86.70
12622;DHT22;6376;48.182;-1.644;2023-06-10T04:33:54;20.50;86.60
12622;DHT22;6376;48.182;-1.644;2023-06-10T04:36:20;20.50;86.50
12622;DHT22;6376;48.182;-1.644;2023-06-10T04:38:46;20.50;86.30
12622;DHT22;6376;48.182;-1.644;2023-06-10T04:41:12;20.50;86.10
12622;DHT22;6376;48.182;-1.644;2023-06-10T04:43:38;20.50;86.40
12622;DHT22;6376;48.182;-1.644;2023-06-10T04:46:04;20.50;86.30
12622;DHT22;6376;48.182;-1.644;2023-06-10T04:48:30;20.60;86.50
12622;DHT22;6376;48.182;-1.644;2023-06-10T04:50:55;20.50;86.40
12622;DHT22;6376;48.182;-1.644;2023-06-10T04:53:22;20.60;86.40
12622;DHT22;6376;48.182;-1.644;2023-06-10T04:55:47;20.50;86.60
12622;DHT22;6376;48.182;-1.644;2023-06-10T04:58:14;20.50;86.10
12622;DHT22;6376;48.182;-1.644;2023-06-10T05:00:39;20.50;86.40
12622;DHT22;6376;48.182;-1.644;2023-06-10T05:03:05;20.50;86.40
12622;DHT22;6376;48.182;-1.644;2023-06-10T05:05:31;20.50;86.20
12622;DHT22;6376;48.182;-1.644;2023-06-10T05:07:56;20.50;86.40
12622;DHT22;6376;48.182;-1.644;2023-06-10T05:10:22;20.50;86.60
12622;DHT22;6376;48.182;-1.644;2023-06-10T05:12:48;20.60;86.60
12622;DHT22;6376;48.182;-1.644;2023-06-10T05:15:14;20.50;86.60
12622;DHT22;6376;48.182;-1.644;2023-06-10T05:17:39;20.50;86.70
12622;DHT22;6376;48.182;-1.644;2023-06-10T05:20:05;20.50;86.70
12622;DHT22;6376;48.182;-1.644;2023-06-10T05:22:32;20.50;86.80
12622;DHT22;6376;48.182;-1.644;2023-06-10T05:24:57;20.50;87.00
12622;DHT22;6376;48.182;-1.644;2023-06-10T05:27:23;20.50;87.20
12622;DHT22;6376;48.182;-1.644;2023-06-10T05:29:49;20.50;86.90
12622;DHT22;6376;48.182;-1.644;2023-06-10T05:32:17;20.50;86.90
12622;DHT22;6376;48.182;-1.644;2023-06-10T05:34:42;20.50;87.10
12622;DHT22;6376;48.182;-1.644;2023-06-10T05:37:08;20.50;86.80
12622;DHT22;6376;48.182;-1.644;2023-06-10T05:39:35;20.50;86.90
12622;DHT22;6376;48.182;-1.644;2023-06-10T05:42:06;20.50;87.00
12622;DHT22;6376;48.182;-1.644;2023-06-10T05:44:32;20.50;87.00
12622;DHT22;6376;48.182;-1.644;2023-06-10T05:46:58;20.50;87.10
12622;DHT22;6376;48.182;-1.644;2023-06-10T05:49:23;20.50;86.70
12622;DHT22;6376;48.182;-1.644;2023-06-10T05:51:49;20.50;86.70
12622;DHT22;6376;48.182;-1.644;2023-06-10T05:54:15;20.50;86.90
12622;DHT22;6376;48.182;-1.644;2023-06-10T05:56:41;20.50;87.00
12622;DHT22;6376;48.182;-1.644;2023-06-10T05:59:06;20.50;87.10
12622;DHT22;6376;48.182;-1.644;2023-06-10T06:01:32;20.50;86.70
12622;DHT22;6376;48.182;-1.644;2023-06-10T06:03:58;20.50;86.70
12622;DHT22;6376;48.182;-1.644;2023-06-10T06:06:23;20.50;87.20
12622;DHT22;6376;48.182;-1.644;2023-06-10T06:08:49;20.50;87.10
12622;DHT22;6376;48.182;-1.644;2023-06-10T06:11:15;20.50;87.00
12622;DHT22;6376;48.182;-1.644;2023-06-10T06:13:40;20.50;87.00
12622;DHT22;6376;48.182;-1.644;2023-06-10T06:16:07;20.50;87.00
12622;DHT22;6376;48.182;-1.644;2023-06-10T06:18:33;20.50;87.00
12622;DHT22;6376;48.182;-1.644;2023-06-10T06:20:59;20.40;87.10
12622;DHT22;6376;48.182;-1.644;2023-06-10T06:23:24;20.40;87.00
12622;DHT22;6376;48.182;-1.644;2023-06-10T06:25:50;20.40;87.30
12622;DHT22;6376;48.182;-1.644;2023-06-10T06:28:16;20.40;87.40
12622;DHT22;6376;48.182;-1.644;2023-06-10T06:30:41;20.40;87.30
12622;DHT22;6376;48.182;-1.644;2023-06-10T06:33:07;20.40;87.70
12622;DHT22;6376;48.182;-1.644;2023-06-10T06:35:33;20.40;87.70
12622;DHT22;6376;48.182;-1.644;2023-06-10T06:37:59;20.40;87.50
12622;DHT22;6376;48.182;-1.644;2023-06-10T06:40:25;20.40;87.70
12622;DHT22;6376;48.182;-1.644;2023-06-10T06:42:50;20.40;87.60
12622;DHT22;6376;48.182;-1.644;2023-06-10T06:45:16;20.40;87.40
12622;DHT22;6376;48.182;-1.644;2023-06-10T06:47:42;20.40;87.30
12622;DHT22;6376;48.182;-1.644;2023-06-10T06:50:09;20.40;87.30
12622;DHT22;6376;48.182;-1.644;2023-06-10T06:52:35;20.40;87.40
12622;DHT22;6376;48.182;-1.644;2023-06-10T06:55:00;20.40;87.30
12622;DHT22;6376;48.182;-1.644;2023-06-10T06:57:26;20.40;87.20
12622;DHT22;6376;48.182;-1.644;2023-06-10T06:59:51;20.40;87.30
12622;DHT22;6376;48.182;-1.644;2023-06-10T07:02:17;20.40;87.20
12622;DHT22;6376;48.182;-1.644;2023-06-10T07:04:44;20.40;87.20
12622;DHT22;6376;48.182;-1.644;2023-06-10T07:07:11;20.50;87.00
12622;DHT22;6376;48.182;-1.644;2023-06-10T07:09:37;20.40;87.00
12622;DHT22;6376;48.182;-1.644;2023-06-10T07:12:03;20.40;87.30
12622;DHT22;6376;48.182;-1.644;2023-06-10T07:14:29;20.40;87.00
12622;DHT22;6376;48.182;-1.644;2023-06-10T07:16:54;20.50;87.00
12622;DHT22;6376;48.182;-1.644;2023-06-10T07:19:20;20.50;87.00
12622;DHT22;6376;48.182;-1.644;2023-06-10T07:21:46;20.50;87.00
12622;DHT22;6376;48.182;-1.644;2023-06-10T07:24:11;20.50;87.10
12622;DHT22;6376;48.182;-1.644;2023-06-10T07:26:37;20.50;87.30
12622;DHT22;6376;48.182;-1.644;2023-06-10T07:29:03;20.60;87.10
12622;DHT22;6376;48.182;-1.644;2023-06-10T07:31:28;20.60;86.20
12622;DHT22;6376;48.182;-1.644;2023-06-10T07:33:54;20.60;87.40
12622;DHT22;6376;48.182;-1.644;2023-06-10T07:36:20;20.60;87.10
12622;DHT22;6376;48.182;-1.644;2023-06-10T07:38:45;20.60;86.20
12622;DHT22;6376;48.182;-1.644;2023-06-10T07:41:11;20.60;87.10
12622;DHT22;6376;48.182;-1.644;2023-06-10T07:43:37;20.60;86.80
12622;DHT22;6376;48.182;-1.644;2023-06-10T07:46:03;20.60;86.60
12622;DHT22;6376;48.182;-1.644;2023-06-10T07:48:28;20.60;86.70
12622;DHT22;6376;48.182;-1.644;2023-06-10T07:50:54;20.60;86.40
12622;DHT22;6376;48.182;-1.644;2023-06-10T07:53:20;20.60;86.50
12622;DHT22;6376;48.182;-1.644;2023-06-10T07:55:45;20.60;86.50
12622;DHT22;6376;48.182;-1.644;2023-06-10T07:58:11;20.60;86.30
12622;DHT22;6376;48.182;-1.644;2023-06-10T08:00:36;20.60;85.80
12622;DHT22;6376;48.182;-1.644;2023-06-10T08:03:02;20.60;86.20
12622;DHT22;6376;48.182;-1.644;2023-06-10T08:05:28;20.60;86.30
12622;DHT22;6376;48.182;-1.644;2023-06-10T08:07:55;20.60;86.90
12622;DHT22;6376;48.182;-1.644;2023-06-10T08:10:21;20.60;86.50
12622;DHT22;6376;48.182;-1.644;2023-06-10T08:12:46;20.60;86.80
12622;DHT22;6376;48.182;-1.644;2023-06-10T08:15:12;20.60;86.70
12622;DHT22;6376;48.182;-1.644;2023-06-10T08:17:38;20.60;86.50
12622;DHT22;6376;48.182;-1.644;2023-06-10T08:20:05;20.60;86.10
12622;DHT22;6376;48.182;-1.644;2023-06-10T08:22:31;20.60;86.10
12622;DHT22;6376;48.182;-1.644;2023-06-10T08:24:57;20.60;86.30
12622;DHT22;6376;48.182;-1.644;2023-06-10T08:27:22;20.60;86.80
12622;DHT22;6376;48.182;-1.644;2023-06-10T08:29:48;20.60;86.10
12622;DHT22;6376;48.182;-1.644;2023-06-10T08:32:14;20.60;86.10
12622;DHT22;6376;48.182;-1.644;2023-06-10T08:34:40;20.60;86.10
12622;DHT22;6376;48.182;-1.644;2023-06-10T08:37:07;20.60;85.10
12622;DHT22;6376;48.182;-1.644;2023-06-10T08:39:32;20.60;84.70
12622;DHT22;6376;48.182;-1.644;2023-06-10T08:42:23;20.60;85.00
12622;DHT22;6376;48.182;-1.644;2023-06-10T08:44:54;20.60;85.00
12622;DHT22;6376;48.182;-1.644;2023-06-10T08:47:25;20.70;85.60
12622;DHT22;6376;48.182;-1.644;2023-06-10T08:49:51;20.60;84.70
12622;DHT22;6376;48.182;-1.644;2023-06-10T08:52:20;20.70;84.10
12622;DHT22;6376;48.182;-1.644;2023-06-10T08:54:52;20.70;85.40
12622;DHT22;6376;48.182;-1.644;2023-06-10T08:57:20;20.70;84.80
12622;DHT22;6376;48.182;-1.644;2023-06-10T08:59:47;20.70;84.70
12622;DHT22;6376;48.182;-1.644;2023-06-10T09:02:14;20.70;84.90
12622;DHT22;6376;48.182;-1.644;2023-06-10T09:04:42;20.70;85.00
12622;DHT22;6376;48.182;-1.644;2023-06-10T09:07:09;20.70;84.30
12622;DHT22;6376;48.182;-1.644;2023-06-10T09:09:36;20.70;83.80
12622;DHT22;6376;48.182;-1.644;2023-06-10T09:12:02;20.70;84.10
12622;DHT22;6376;48.182;-1.644;2023-06-10T09:14:28;20.70;84.30
12622;DHT22;6376;48.182;-1.644;2023-06-10T09:16:54;20.70;84.70
12622;DHT22;6376;48.182;-1.644;2023-06-10T09:19:24;20.70;84.10
12622;DHT22;6376;48.182;-1.644;2023-06-10T09:21:50;20.70;84.10
12622;DHT22;6376;48.182;-1.644;2023-06-10T09:24:16;20.70;83.80
12622;DHT22;6376;48.182;-1.644;2023-06-10T09:26:42;20.70;84.40
12622;DHT22;6376;48.182;-1.644;2023-06-10T09:29:08;20.70;84.70
12622;DHT22;6376;48.182;-1.644;2023-06-10T09:31:38;20.70;85.00
12622;DHT22;6376;48.182;-1.644;2023-06-10T09:34:09;20.70;84.50
12622;DHT22;6376;48.182;-1.644;2023-06-10T09:36:36;20.70;83.60
12622;DHT22;6376;48.182;-1.644;2023-06-10T09:39:02;20.70;84.30
12622;DHT22;6376;48.182;-1.644;2023-06-10T09:41:35;20.70;84.10
12622;DHT22;6376;48.182;-1.644;2023-06-10T09:44:01;20.70;84.00
12622;DHT22;6376;48.182;-1.644;2023-06-10T09:46:31;20.70;84.30
12622;DHT22;6376;48.182;-1.644;2023-06-10T09:49:00;20.70;83.80
12622;DHT22;6376;48.182;-1.644;2023-06-10T09:51:26;20.70;83.80
12622;DHT22;6376;48.182;-1.644;2023-06-10T09:53:51;20.70;83.70
12622;DHT22;6376;48.182;-1.644;2023-06-10T09:56:18;20.70;83.60
12622;DHT22;6376;48.182;-1.644;2023-06-10T09:58:44;20.70;83.60
12622;DHT22;6376;48.182;-1.644;2023-06-10T10:01:13;20.70;84.00
12622;DHT22;6376;48.182;-1.644;2023-06-10T10:03:47;20.70;83.70
12622;DHT22;6376;48.182;-1.644;2023-06-10T10:06:14;20.70;83.90
12622;DHT22;6376;48.182;-1.644;2023-06-10T10:08:40;20.80;83.90
12622;DHT22;6376;48.182;-1.644;2023-06-10T10:11:06;20.70;83.60
12622;DHT22;6376;48.182;-1.644;2023-06-10T10:13:34;20.70;83.50
12622;DHT22;6376;48.182;-1.644;2023-06-10T10:16:06;20.80;83.80
12622;DHT22;6376;48.182;-1.644;2023-06-10T10:18:39;20.80;83.60
12622;DHT22;6376;48.182;-1.644;2023-06-10T10:21:13;20.80;83.10
12622;DHT22;6376;48.182;-1.644;2023-06-10T10:24:31;20.80;83.30
12622;DHT22;6376;48.182;-1.644;2023-06-10T10:26:50;20.80;83.40
12622;DHT22;6376;48.182;-1.644;2023-06-10T10:32:18;20.80;83.20
12622;DHT22;6376;48.182;-1.644;2023-06-10T10:35:21;20.80;83.20
12622;DHT22;6376;48.182;-1.644;2023-06-10T10:37:49;20.80;83.00
12622;DHT22;6376;48.182;-1.644;2023-06-10T10:40:16;20.80;83.20
12622;DHT22;6376;48.182;-1.644;2023-06-10T10:42:42;20.80;83.30
12622;DHT22;6376;48.182;-1.644;2023-06-10T10:45:09;20.80;83.10
12622;DHT22;6376;48.182;-1.644;2023-06-10T10:47:36;20.80;83.00
12622;DHT22;6376;48.182;-1.644;2023-06-10T10:50:13;20.80;82.80
12622;DHT22;6376;48.182;-1.644;2023-06-10T10:55:17;20.90;82.80
12622;DHT22;6376;48.182;-1.644;2023-06-10T10:57:43;20.90;82.40
12622;DHT22;6376;48.182;-1.644;2023-06-10T11:00:10;21.00;82.20
12622;DHT22;6376;48.182;-1.644;2023-06-10T11:02:42;21.00;82.10
12622;DHT22;6376;48.182;-1.644;2023-06-10T11:05:10;21.00;81.90
12622;DHT22;6376;48.182;-1.644;2023-06-10T11:07:37;21.00;82.40
12622;DHT22;6376;48.182;-1.644;2023-06-10T11:10:07;21.10;81.90
12622;DHT22;6376;48.182;-1.644;2023-06-10T11:12:49;21.20;81.50
12622;DHT22;6376;48.182;-1.644;2023-06-10T11:15:24;21.20;81.50
12622;DHT22;6376;48.182;-1.644;2023-06-10T11:26:14;21.00;82.50
12622;DHT22;6376;48.182;-1.644;2023-06-10T11:28:41;21.00;82.10
12622;DHT22;6376;48.182;-1.644;2023-06-10T11:31:08;21.00;82.20
12622;DHT22;6376;48.182;-1.644;2023-06-10T11:33:33;21.00;82.50
12622;DHT22;6376;48.182;-1.644;2023-06-10T11:36:07;21.00;82.40
12622;DHT22;6376;48.182;-1.644;2023-06-10T11:38:33;21.10;82.30
12622;DHT22;6376;48.182;-1.644;2023-06-10T11:40:59;21.00;82.50
12622;DHT22;6376;48.182;-1.644;2023-06-10T11:43:25;21.10;81.90
12622;DHT22;6376;48.182;-1.644;2023-06-10T11:45:54;21.20;81.70
12622;DHT22;6376;48.182;-1.644;2023-06-10T11:48:21;21.20;82.20
12622;DHT22;6376;48.182;-1.644;2023-06-10T11:50:47;21.10;81.80
12622;DHT22;6376;48.182;-1.644;2023-06-10T11:53:12;21.10;81.80
12622;DHT22;6376;48.182;-1.644;2023-06-10T11:55:50;21.20;82.50
12622;DHT22;6376;48.182;-1.644;2023-06-10T11:58:17;21.20;81.60
12622;DHT22;6376;48.182;-1.644;2023-06-10T12:00:54;21.30;81.90
12622;DHT22;6376;48.182;-1.644;2023-06-10T12:03:21;21.30;81.30
12622;DHT22;6376;48.182;-1.644;2023-06-10T12:08:26;21.40;80.80
12622;DHT22;6376;48.182;-1.644;2023-06-10T12:10:53;21.40;80.80
12622;DHT22;6376;48.182;-1.644;2023-06-10T12:13:18;21.40;80.80
12622;DHT22;6376;48.182;-1.644;2023-06-10T12:15:44;21.50;81.10
12622;DHT22;6376;48.182;-1.644;2023-06-10T12:18:17;21.50;80.50
12622;DHT22;6376;48.182;-1.644;2023-06-10T12:20:43;21.50;80.40
12622;DHT22;6376;48.182;-1.644;2023-06-10T12:23:10;21.60;80.70
12622;DHT22;6376;48.182;-1.644;2023-06-10T12:25:35;21.60;80.30
12622;DHT22;6376;48.182;-1.644;2023-06-10T12:28:05;21.60;80.20
12622;DHT22;6376;48.182;-1.644;2023-06-10T12:30:32;21.60;80.10
12622;DHT22;6376;48.182;-1.644;2023-06-10T12:32:58;21.70;80.10
12622;DHT22;6376;48.182;-1.644;2023-06-10T12:35:26;21.60;80.10
12622;DHT22;6376;48.182;-1.644;2023-06-10T12:38:02;21.70;80.40
12622;DHT22;6376;48.182;-1.644;2023-06-10T12:40:33;21.60;80.50
12622;DHT22;6376;48.182;-1.644;2023-06-10T12:42:59;21.60;81.00
12622;DHT22;6376;48.182;-1.644;2023-06-10T12:45:33;21.60;81.00
12622;DHT22;6376;48.182;-1.644;2023-06-10T12:48:31;21.60;80.80
12622;DHT22;6376;48.182;-1.644;2023-06-10T12:50:58;21.60;80.80
12622;DHT22;6376;48.182;-1.644;2023-06-10T12:53:24;21.60;81.00
12622;DHT22;6376;48.182;-1.644;2023-06-10T12:55:51;21.60;81.20
12622;DHT22;6376;48.182;-1.644;2023-06-10T12:58:18;21.60;81.00
12622;DHT22;6376;48.182;-1.644;2023-06-10T13:00:44;21.60;80.90
12622;DHT22;6376;48.182;-1.644;2023-06-10T13:03:10;21.60;80.80
12622;DHT22;6376;48.182;-1.644;2023-06-10T13:05:37;21.70;80.80
12622;DHT22;6376;48.182;-1.644;2023-06-10T13:08:07;21.70;80.80
12622;DHT22;6376;48.182;-1.644;2023-06-10T13:10:35;21.60;80.90
12622;DHT22;6376;48.182;-1.644;2023-06-10T13:13:02;21.60;81.10
12622;DHT22;6376;48.182;-1.644;2023-06-10T13:15:33;21.70;81.00
12622;DHT22;6376;48.182;-1.644;2023-06-10T13:18:03;21.70;81.00
12622;DHT22;6376;48.182;-1.644;2023-06-10T13:20:29;21.70;81.00
12622;DHT22;6376;48.182;-1.644;2023-06-10T13:22:55;21.70;81.00
12622;DHT22;6376;48.182;-1.644;2023-06-10T13:25:20;21.70;80.80
12622;DHT22;6376;48.182;-1.644;2023-06-10T13:27:46;21.70;80.90
12622;DHT22;6376;48.182;-1.644;2023-06-10T13:30:12;21.70;81.10
12622;DHT22;6376;48.182;-1.644;2023-06-10T13:32:38;21.60;81.20
12622;DHT22;6376;48.182;-1.644;2023-06-10T13:35:04;21.70;81.70
12622;DHT22;6376;48.182;-1.644;2023-06-10T13:37:30;21.60;81.40
12622;DHT22;6376;48.182;-1.644;2023-06-10T13:39:56;21.60;81.30
12622;DHT22;6376;48.182;-1.644;2023-06-10T13:42:21;21.60;81.40
12622;DHT22;6376;48.182;-1.644;2023-06-10T13:44:47;21.70;81.40
12622;DHT22;6376;48.182;-1.644;2023-06-10T13:47:14;21.70;81.40
12622;DHT22;6376;48.182;-1.644;2023-06-10T13:49:40;21.70;81.40
12622;DHT22;6376;48.182;-1.644;2023-06-10T13:52:06;21.60;81.60
12622;DHT22;6376;48.182;-1.644;2023-06-10T13:54:33;21.60;81.40
12622;DHT22;6376;48.182;-1.644;2023-06-10T13:56:58;21.60;81.50
12622;DHT22;6376;48.182;-1.644;2023-06-10T13:59:25;21.70;81.50
12622;DHT22;6376;48.182;-1.644;2023-06-10T14:01:51;21.70;81.60
12622;DHT22;6376;48.182;-1.644;2023-06-10T14:04:17;21.60;81.50
12622;DHT22;6376;48.182;-1.644;2023-06-10T14:06:42;21.70;81.70
12622;DHT22;6376;48.182;-1.644;2023-06-10T14:09:09;21.70;81.50
12622;DHT22;6376;48.182;-1.644;2023-06-10T14:11:34;21.70;81.50
12622;DHT22;6376;48.182;-1.644;2023-06-10T14:14:00;21.70;81.40
12622;DHT22;6376;48.182;-1.644;2023-06-10T14:16:26;21.70;81.40
12622;DHT22;6376;48.182;-1.644;2023-06-10T14:18:52;21.70;81.40
12622;DHT22;6376;48.182;-1.644;2023-06-10T14:21:18;21.70;81.50
12622;DHT22;6376;48.182;-1.644;2023-06-10T14:23:44;21.70;81.90
12622;DHT22;6376;48.182;-1.644;2023-06-10T14:26:11;21.80;82.10
12622;DHT22;6376;48.182;-1.644;2023-06-10T14:28:36;21.70;81.60
12622;DHT22;6376;48.182;-1.644;2023-06-10T14:31:02;21.70;81.70
12622;DHT22;6376;48.182;-1.644;2023-06-10T14:33:28;21.70;81.90
12622;DHT22;6376;48.182;-1.644;2023-06-10T14:35:54;21.70;82.20
12622;DHT22;6376;48.182;-1.644;2023-06-10T14:38:19;21.70;82.50
12622;DHT22;6376;48.182;-1.644;2023-06-10T14:40:45;21.70;81.90
12622;DHT22;6376;48.182;-1.644;2023-06-10T14:43:10;21.70;81.70
12622;DHT22;6376;48.182;-1.644;2023-06-10T14:45:37;21.80;81.90
12622;DHT22;6376;48.182;-1.644;2023-06-10T14:48:04;21.70;81.90
12622;DHT22;6376;48.182;-1.644;2023-06-10T14:50:29;21.70;82.10
12622;DHT22;6376;48.182;-1.644;2023-06-10T14:52:55;21.70;82.20
12622;DHT22;6376;48.182;-1.644;2023-06-10T14:55:21;21.70;82.20
12622;DHT22;6376;48.182;-1.644;2023-06-10T14:57:48;21.80;81.90
12622;DHT22;6376;48.182;-1.644;2023-06-10T15:00:14;21.90;81.90
12622;DHT22;6376;48.182;-1.644;2023-06-10T15:02:42;21.90;82.00
12622;DHT22;6376;48.182;-1.644;2023-06-10T15:05:08;22.00;81.90
12622;DHT22;6376;48.182;-1.644;2023-06-10T15:07:34;22.00;82.20
12622;DHT22;6376;48.182;-1.644;2023-06-10T15:09:59;22.00;82.00
12622;DHT22;6376;48.182;-1.644;2023-06-10T15:12:25;22.10;82.30
12622;DHT22;6376;48.182;-1.644;2023-06-10T15:14:51;22.00;82.30
12622;DHT22;6376;48.182;-1.644;2023-06-10T15:17:16;22.10;82.30
12622;DHT22;6376;48.182;-1.644;2023-06-10T15:19:42;22.10;82.30
12622;DHT22;6376;48.182;-1.644;2023-06-10T15:22:08;22.10;82.40
12622;DHT22;6376;48.182;-1.644;2023-06-10T15:24:33;22.10;82.50
12622;DHT22;6376;48.182;-1.644;2023-06-10T15:26:59;22.10;82.70
12622;DHT22;6376;48.182;-1.644;2023-06-10T15:29:24;22.10;82.70
12622;DHT22;6376;48.182;-1.644;2023-06-10T15:31:50;22.10;82.80
12622;DHT22;6376;48.182;-1.644;2023-06-10T15:34:16;22.10;82.70
12622;DHT22;6376;48.182;-1.644;2023-06-10T15:36:41;22.10;83.00
12622;DHT22;6376;48.182;-1.644;2023-06-10T15:39:07;22.10;83.00
12622;DHT22;6376;48.182;-1.644;2023-06-10T15:41:33;22.10;82.90
12622;DHT22;6376;48.182;-1.644;2023-06-10T15:43:59;22.10;82.90
12622;DHT22;6376;48.182;-1.644;2023-06-10T15:46:26;22.10;83.10